Hlavní strana
METAR-TAF:

METAR-TAF

Letiště :

Varna, Bulharsko

zeměpisná šířka: 43-12N, zeměpisná délka: 027-55E, výška: 41 m

Aktuální stav počasí

Zpráva byla vytvořena před 23 minutami, v 14:00 UTC
Západojihozápadní vítr 9 kt, proměnlivý mezi jižním a západním
Teplota 23°C
Vlhkost vzduchu 25%
Tlak 1011 hPa
Viditelnost 10 km a více
Žádná oblačnost pod 1500 m, nevyskytují se cumulonimby.

METAR: LBWN 241400Z 24009KT 180V280 CAVOK 23/02 Q1011 NOSIG

Čas: 17:23 (14:23 UTC)

Předpověď počasí

Zpráva byla vytvořena před 3 hodinami a 23 minutami, v 11:00 UTC
Předpověď platná od 24 v 12 UTC do 25 v 12 UTC
Západojihozápadní vítr 14 kt
Viditelnost 10 km a více
Polojasno ve výšce 4500 ft
Změna
od 24 v 18 UTC do 24 v 20 UTC
Severozápadní vítr 8 kt
Změna
od 25 v 10 UTC do 25 v 12 UTC
Jihojihovýchodní vítr 10 kt

TAF: LBWN 241100Z 2412/2512 25014KT 9999 SCT045 BECMG 2418/2420 32008KT BECMG 2510/2512 15010KT

Stav a předpovědi počasí z více než 4 000 letišť (zprávy METAR a TAF).

Červené a žluté tečky na mapě představují dostupné meteorologické stanice.

Když kurzor umístíte na tečku, zobrazí se název stanice.

Pak kliknutím zobrazíte stav a předpověď počasí.

Chcete-li změnit mapu, kliknutím na zelené tlačítko se znaménkem +mapu přiblížíte, kliknutím na zelené tlačítko se znaménkem – mapu oddálíte a kliknutím na zelené šipky přejdete na sousední mapy.


METAR-TAF: